createdAt,value
2018-04-27T00:00:00.385Z,196
2018-04-27T00:00:12.905Z,192
2018-04-27T00:00:25.375Z,196
2018-04-27T00:00:37.789Z,196
2018-04-27T00:00:50.226Z,196
2018-04-27T00:01:02.651Z,196
2018-04-27T00:01:15.062Z,196
2018-04-27T00:01:27.496Z,196
2018-04-27T00:01:39.914Z,196
2018-04-27T00:01:52.348Z,196
2018-04-27T00:02:04.884Z,196
2018-04-27T00:02:17.295Z,234
2018-04-27T00:02:29.731Z,240
2018-04-27T00:02:42.168Z,240
2018-04-27T00:02:54.595Z,240
2018-04-27T00:03:07.019Z,200
2018-04-27T00:03:19.469Z,200
2018-04-27T00:03:31.911Z,200
2018-04-27T00:03:44.341Z,233
2018-04-27T00:03:56.750Z,233
2018-04-27T00:04:09.170Z,233
2018-04-27T00:04:21.580Z,233
2018-04-27T00:04:33.995Z,233
2018-04-27T00:04:46.418Z,233
2018-04-27T00:04:58.820Z,233
2018-04-27T00:05:12.230Z,233
2018-04-27T00:05:24.763Z,233
2018-04-27T00:05:37.169Z,233
2018-04-27T00:05:49.578Z,233
2018-04-27T00:06:01.987Z,233
2018-04-27T00:06:14.404Z,233
2018-04-27T00:06:26.821Z,233
2018-04-27T00:06:39.239Z,233
2018-04-27T00:06:51.650Z,233
2018-04-27T00:07:04.077Z,233
2018-04-27T00:07:16.495Z,233
2018-04-27T00:07:28.905Z,233
2018-04-27T00:07:41.325Z,233
2018-04-27T00:07:53.743Z,233
2018-04-27T00:08:06.157Z,233
2018-04-27T00:08:18.628Z,233
2018-04-27T00:08:31.022Z,233
2018-04-27T00:08:43.419Z,233
2018-04-27T00:08:55.822Z,233
2018-04-27T00:09:08.236Z,233
2018-04-27T00:09:20.663Z,233
2018-04-27T00:09:33.140Z,233
2018-04-27T00:09:45.557Z,192
2018-04-27T00:09:58.047Z,158
2018-04-27T00:10:10.527Z,204
2018-04-27T00:10:22.943Z,173
2018-04-27T00:10:35.353Z,179
2018-04-27T00:10:47.757Z,192
2018-04-27T00:11:00.147Z,192
2018-04-27T00:11:12.563Z,192
2018-04-27T00:11:24.963Z,192
2018-04-27T00:11:37.368Z,188
2018-04-27T00:11:49.774Z,182
2018-04-27T00:12:02.192Z,227
2018-04-27T00:12:14.602Z,227
2018-04-27T00:12:27.162Z,227
2018-04-27T00:12:39.665Z,227
2018-04-27T00:12:52.074Z,227
2018-04-27T00:13:04.532Z,227
2018-04-27T00:13:16.956Z,227
2018-04-27T00:13:29.375Z,227
2018-04-27T00:13:41.963Z,227
2018-04-27T00:13:54.359Z,227
2018-04-27T00:14:06.855Z,227
2018-04-27T00:14:19.263Z,219
2018-04-27T00:14:31.675Z,210
2018-04-27T00:14:44.087Z,204
2018-04-27T00:14:56.496Z,204
2018-04-27T00:15:08.898Z,204
2018-04-27T00:15:21.299Z,204
2018-04-27T00:15:33.770Z,204
2018-04-27T00:15:46.193Z,204
2018-04-27T00:15:58.609Z,204
2018-04-27T00:16:11.013Z,204
2018-04-27T00:16:23.427Z,204
2018-04-27T00:16:35.842Z,204
2018-04-27T00:16:48.238Z,204
2018-04-27T00:17:00.656Z,204
2018-04-27T00:17:13.050Z,204
2018-04-27T00:17:25.467Z,195
2018-04-27T00:17:37.874Z,195
2018-04-27T00:17:50.285Z,195
2018-04-27T00:18:02.688Z,195
2018-04-27T00:18:15.109Z,225
2018-04-27T00:18:27.676Z,208
2018-04-27T00:18:40.208Z,204
2018-04-27T00:18:52.613Z,202
2018-04-27T00:19:05.022Z,202
2018-04-27T00:19:17.505Z,202
2018-04-27T00:19:29.949Z,202
2018-04-27T00:19:42.443Z,202
2018-04-27T00:19:54.850Z,202
2018-04-27T00:20:07.263Z,200
2018-04-27T00:20:19.675Z,199
2018-04-27T00:20:32.072Z,200
2018-04-27T00:20:44.487Z,200
2018-04-27T00:20:56.894Z,200
2018-04-27T00:21:09.302Z,207
2018-04-27T00:21:21.702Z,207
2018-04-27T00:21:34.149Z,207
2018-04-27T00:21:46.564Z,223
2018-04-27T00:21:59.182Z,201
2018-04-27T00:22:11.593Z,201
2018-04-27T00:22:24.001Z,201
2018-04-27T00:22:36.403Z,201
2018-04-27T00:22:48.807Z,202
2018-04-27T00:23:01.226Z,202
2018-04-27T00:23:13.651Z,202
2018-04-27T00:23:26.071Z,202
2018-04-27T00:23:38.494Z,203
2018-04-27T00:23:50.904Z,204
2018-04-27T00:24:03.313Z,204
2018-04-27T00:24:15.717Z,202
2018-04-27T00:24:28.127Z,202
2018-04-27T00:24:40.580Z,202
2018-04-27T00:24:53.049Z,202
2018-04-27T00:25:05.468Z,202
2018-04-27T00:25:17.863Z,202
2018-04-27T00:25:30.323Z,202
2018-04-27T00:25:42.726Z,202
2018-04-27T00:25:55.194Z,202
2018-04-27T00:26:07.616Z,202
2018-04-27T00:26:20.038Z,202
2018-04-27T00:26:32.450Z,202
2018-04-27T00:26:44.846Z,202
2018-04-27T00:26:57.292Z,202
2018-04-27T00:27:09.717Z,202
2018-04-27T00:27:22.140Z,202
2018-04-27T00:27:34.555Z,202
2018-04-27T00:27:46.971Z,202
2018-04-27T00:27:59.405Z,202
2018-04-27T00:28:11.889Z,202
2018-04-27T00:28:24.305Z,202
2018-04-27T00:28:36.707Z,202
2018-04-27T00:28:49.128Z,202
2018-04-27T00:29:01.524Z,202
2018-04-27T00:29:14.004Z,202
2018-04-27T00:29:26.434Z,202
2018-04-27T00:29:38.849Z,202
2018-04-27T00:29:51.247Z,202
2018-04-27T00:30:03.767Z,202
2018-04-27T00:30:16.182Z,202
2018-04-27T00:30:28.698Z,202
2018-04-27T00:30:41.110Z,202
2018-04-27T00:30:53.518Z,202
2018-04-27T00:31:05.929Z,202
2018-04-27T00:31:18.341Z,202
2018-04-27T00:31:30.755Z,202
2018-04-27T00:31:43.177Z,202
2018-04-27T00:31:55.596Z,202
2018-04-27T00:32:08.010Z,202
2018-04-27T00:32:20.424Z,202
2018-04-27T00:32:32.852Z,202
2018-04-27T00:32:45.252Z,202
2018-04-27T00:32:57.660Z,202
2018-04-27T00:33:10.065Z,202
2018-04-27T00:33:22.476Z,202
2018-04-27T00:33:34.890Z,202
2018-04-27T00:33:47.569Z,202
2018-04-27T00:33:59.972Z,202
2018-04-27T00:34:12.380Z,202
2018-04-27T00:34:25.426Z,202
2018-04-27T00:34:38.309Z,202
2018-04-27T00:34:50.731Z,175
2018-04-27T00:35:03.139Z,183
2018-04-27T00:35:15.539Z,178
2018-04-27T00:35:27.967Z,178
2018-04-27T00:35:40.386Z,192
2018-04-27T00:35:52.798Z,192
2018-04-27T00:36:05.211Z,192
2018-04-27T00:36:17.634Z,192
2018-04-27T00:36:30.125Z,192
2018-04-27T00:36:42.533Z,192
2018-04-27T00:36:54.935Z,192
2018-04-27T00:37:07.350Z,195
2018-04-27T00:37:19.763Z,195
2018-04-27T00:37:32.239Z,195
2018-04-27T00:37:44.660Z,195
2018-04-27T00:37:57.078Z,195
2018-04-27T00:38:09.489Z,195
2018-04-27T00:38:21.951Z,195
2018-04-27T00:38:34.362Z,195
2018-04-27T00:38:46.794Z,195
2018-04-27T00:38:59.204Z,195
2018-04-27T00:39:11.619Z,195
2018-04-27T00:39:24.024Z,195
2018-04-27T00:39:36.477Z,195
2018-04-27T00:39:48.885Z,195
2018-04-27T00:40:01.307Z,195
2018-04-27T00:40:13.745Z,195
2018-04-27T00:40:26.286Z,195
2018-04-27T00:40:38.696Z,195
2018-04-27T00:40:51.100Z,195
2018-04-27T00:41:03.524Z,195
2018-04-27T00:41:15.929Z,195
2018-04-27T00:41:28.350Z,195
2018-04-27T00:41:40.766Z,195
2018-04-27T00:41:53.277Z,195
2018-04-27T00:42:05.696Z,195
2018-04-27T00:42:18.109Z,180
2018-04-27T00:42:30.567Z,194
2018-04-27T00:42:42.967Z,195
2018-04-27T00:42:55.384Z,195
2018-04-27T00:43:07.793Z,195
2018-04-27T00:43:20.217Z,195
2018-04-27T00:43:32.628Z,187
2018-04-27T00:43:45.040Z,187
2018-04-27T00:43:57.463Z,187
2018-04-27T00:44:09.948Z,187
2018-04-27T00:44:22.355Z,187
2018-04-27T00:44:34.788Z,187
2018-04-27T00:44:47.192Z,187
2018-04-27T00:44:59.697Z,187
2018-04-27T00:45:12.096Z,187
2018-04-27T00:45:24.560Z,175
2018-04-27T00:45:37.088Z,178
2018-04-27T00:45:49.638Z,196
2018-04-27T00:46:02.039Z,196
2018-04-27T00:46:14.455Z,167
2018-04-27T00:46:26.864Z,167
2018-04-27T00:46:39.289Z,170
2018-04-27T00:46:51.691Z,173
2018-04-27T00:47:04.096Z,173
2018-04-27T00:47:16.499Z,193
2018-04-27T00:47:28.921Z,192
2018-04-27T00:47:41.317Z,192
2018-04-27T00:47:53.754Z,192
2018-04-27T00:48:06.163Z,192
2018-04-27T00:48:18.729Z,192
2018-04-27T00:48:31.146Z,184
2018-04-27T00:48:43.561Z,184
2018-04-27T00:48:56.012Z,184
2018-04-27T00:49:08.428Z,184
2018-04-27T00:49:20.843Z,184
2018-04-27T00:49:33.291Z,184
2018-04-27T00:49:45.712Z,184
2018-04-27T00:49:58.118Z,184
2018-04-27T00:50:10.751Z,233
2018-04-27T00:50:23.159Z,232
2018-04-27T00:50:35.569Z,229
2018-04-27T00:50:47.964Z,229
2018-04-27T00:51:00.366Z,229
2018-04-27T00:51:12.769Z,229
2018-04-27T00:51:25.189Z,222
2018-04-27T00:51:37.607Z,210
2018-04-27T00:51:50.034Z,211
2018-04-27T00:52:02.454Z,211
2018-04-27T00:52:14.854Z,211
2018-04-27T00:52:27.257Z,211
2018-04-27T00:52:39.712Z,211
2018-04-27T00:52:52.118Z,206
2018-04-27T00:53:04.537Z,194
2018-04-27T00:53:16.947Z,194
2018-04-27T00:53:29.349Z,188
2018-04-27T00:53:41.743Z,188
2018-04-27T00:53:54.156Z,188
2018-04-27T00:54:06.572Z,188
2018-04-27T00:54:18.996Z,188
2018-04-27T00:54:31.409Z,188
2018-04-27T00:54:43.820Z,188
2018-04-27T00:54:56.251Z,188
2018-04-27T00:55:08.658Z,188
2018-04-27T00:55:21.054Z,188
2018-04-27T00:55:33.475Z,188
2018-04-27T00:55:45.886Z,188
2018-04-27T00:55:58.284Z,188
2018-04-27T00:56:10.683Z,170
2018-04-27T00:56:23.087Z,169
2018-04-27T00:56:35.487Z,169
2018-04-27T00:56:47.903Z,169
2018-04-27T00:57:00.310Z,169
2018-04-27T00:57:12.809Z,169
2018-04-27T00:57:25.210Z,169
2018-04-27T00:57:37.655Z,169
2018-04-27T00:57:50.065Z,169
2018-04-27T00:58:02.502Z,169
2018-04-27T00:58:14.906Z,169
2018-04-27T00:58:27.318Z,169
2018-04-27T00:58:39.731Z,169
2018-04-27T00:58:52.141Z,169
2018-04-27T00:59:04.558Z,169
2018-04-27T00:59:16.972Z,169
2018-04-27T00:59:29.369Z,169
2018-04-27T00:59:41.828Z,169
2018-04-27T00:59:54.227Z,169
2018-04-27T01:00:06.728Z,169
2018-04-27T01:00:19.196Z,169
2018-04-27T01:00:31.668Z,169
2018-04-27T01:00:44.091Z,169
2018-04-27T01:00:56.501Z,169
2018-04-27T01:01:08.920Z,169
2018-04-27T01:01:21.344Z,169
2018-04-27T01:01:33.754Z,196
2018-04-27T01:01:46.160Z,198
2018-04-27T01:01:58.572Z,190
2018-04-27T01:02:10.976Z,186
2018-04-27T01:02:23.381Z,157
2018-04-27T01:02:36.068Z,194
2018-04-27T01:02:48.493Z,201
2018-04-27T01:03:00.922Z,187
2018-04-27T01:03:13.335Z,186
2018-04-27T01:03:25.740Z,186
2018-04-27T01:03:38.149Z,186
2018-04-27T01:03:50.552Z,186
2018-04-27T01:04:02.951Z,186
2018-04-27T01:04:15.369Z,158
2018-04-27T01:04:27.781Z,164
2018-04-27T01:04:40.178Z,164
2018-04-27T01:04:52.582Z,163
2018-04-27T01:05:05.010Z,163
2018-04-27T01:05:17.410Z,164
2018-04-27T01:05:29.803Z,164
2018-04-27T01:05:42.208Z,165
2018-04-27T01:05:54.616Z,169
2018-04-27T01:06:07.015Z,167
2018-04-27T01:06:19.415Z,168
2018-04-27T01:06:31.836Z,170
2018-04-27T01:06:44.234Z,173
2018-04-27T01:06:56.662Z,173
2018-04-27T01:07:09.095Z,173
2018-04-27T01:07:21.495Z,173
2018-04-27T01:07:34.026Z,173
2018-04-27T01:07:46.462Z,199
2018-04-27T01:07:58.870Z,205
2018-04-27T01:08:11.285Z,204
2018-04-27T01:08:23.706Z,188
2018-04-27T01:08:36.099Z,188
2018-04-27T01:08:48.502Z,188
2018-04-27T01:09:00.990Z,182
2018-04-27T01:09:13.395Z,167
2018-04-27T01:09:25.794Z,167
2018-04-27T01:09:38.213Z,167
2018-04-27T01:09:50.689Z,171
2018-04-27T01:10:03.307Z,171
2018-04-27T01:10:15.735Z,153
2018-04-27T01:10:28.155Z,181
2018-04-27T01:10:40.569Z,181
2018-04-27T01:10:52.991Z,182
2018-04-27T01:11:05.402Z,176
2018-04-27T01:11:17.814Z,176
2018-04-27T01:11:30.214Z,176
2018-04-27T01:11:42.633Z,188
2018-04-27T01:11:55.064Z,188
2018-04-27T01:12:07.476Z,175
2018-04-27T01:12:19.898Z,174
2018-04-27T01:12:32.318Z,229
2018-04-27T01:12:44.730Z,229
2018-04-27T01:12:57.236Z,194
2018-04-27T01:13:09.651Z,194
2018-04-27T01:13:22.132Z,207
2018-04-27T01:13:34.546Z,195
2018-04-27T01:13:47.109Z,194
2018-04-27T01:13:59.517Z,180
2018-04-27T01:14:11.941Z,254
2018-04-27T01:14:24.395Z,211
2018-04-27T01:14:36.814Z,197
2018-04-27T01:14:49.225Z,150
2018-04-27T01:15:01.783Z,196
2018-04-27T01:15:14.220Z,199
2018-04-27T01:15:26.635Z,197
2018-04-27T01:15:39.064Z,196
2018-04-27T01:15:51.472Z,190
2018-04-27T01:16:03.889Z,190
2018-04-27T01:16:16.306Z,202
2018-04-27T01:16:28.722Z,211
2018-04-27T01:16:41.127Z,187
2018-04-27T01:16:53.573Z,182
2018-04-27T01:17:06.001Z,180
2018-04-27T01:17:18.398Z,194
2018-04-27T01:17:30.802Z,193
2018-04-27T01:17:43.217Z,205
2018-04-27T01:17:55.625Z,204
2018-04-27T01:18:08.015Z,205
2018-04-27T01:18:20.420Z,205
2018-04-27T01:18:33.169Z,187
2018-04-27T01:18:45.579Z,227
2018-04-27T01:18:58.002Z,222
2018-04-27T01:19:10.418Z,220
2018-04-27T01:19:22.817Z,220
2018-04-27T01:19:35.229Z,220
2018-04-27T01:19:47.637Z,220
2018-04-27T01:20:00.050Z,220
2018-04-27T01:20:12.525Z,220
2018-04-27T01:20:24.944Z,191
2018-04-27T01:20:37.350Z,175
2018-04-27T01:20:49.756Z,175
2018-04-27T01:21:02.160Z,175
2018-04-27T01:21:14.561Z,175
2018-04-27T01:21:26.972Z,190
2018-04-27T01:21:39.379Z,190
2018-04-27T01:21:52.039Z,190
2018-04-27T01:22:04.439Z,190
2018-04-27T01:22:16.844Z,190
2018-04-27T01:22:29.430Z,184
2018-04-27T01:22:41.843Z,185
2018-04-27T01:22:54.248Z,199
2018-04-27T01:23:06.662Z,186
2018-04-27T01:23:19.060Z,186
2018-04-27T01:23:31.466Z,213
2018-04-27T01:23:43.866Z,192
2018-04-27T01:23:56.299Z,186
2018-04-27T01:24:08.722Z,192
2018-04-27T01:24:21.133Z,192
2018-04-27T01:24:33.548Z,192
2018-04-27T01:24:45.952Z,159
2018-04-27T01:24:58.367Z,183
2018-04-27T01:25:10.786Z,190
2018-04-27T01:25:23.196Z,190
2018-04-27T01:25:35.605Z,190
2018-04-27T01:25:48.017Z,190
2018-04-27T01:26:00.423Z,193
2018-04-27T01:26:12.879Z,195
2018-04-27T01:26:25.303Z,205
2018-04-27T01:26:37.720Z,163
2018-04-27T01:26:50.140Z,171
2018-04-27T01:27:02.554Z,186
2018-04-27T01:27:14.948Z,198
2018-04-27T01:27:27.381Z,169
2018-04-27T01:27:39.786Z,173
2018-04-27T01:27:52.311Z,173
2018-04-27T01:28:04.716Z,165
2018-04-27T01:28:17.120Z,180
2018-04-27T01:28:29.529Z,186
2018-04-27T01:28:42.025Z,190
2018-04-27T01:28:54.458Z,200
2018-04-27T01:29:06.875Z,192
2018-04-27T01:29:19.271Z,192
2018-04-27T01:29:31.691Z,178
2018-04-27T01:29:44.110Z,177
2018-04-27T01:29:56.510Z,190
2018-04-27T01:30:08.919Z,192
2018-04-27T01:30:21.329Z,194
2018-04-27T01:30:33.729Z,194
2018-04-27T01:30:46.117Z,194
2018-04-27T01:30:58.518Z,194
2018-04-27T01:31:10.935Z,194
2018-04-27T01:31:23.356Z,194
2018-04-27T01:31:35.768Z,194
2018-04-27T01:31:48.175Z,198
2018-04-27T01:32:00.591Z,199
2018-04-27T01:32:13.011Z,203
2018-04-27T01:32:25.449Z,182
2018-04-27T01:32:37.854Z,187
2018-04-27T01:32:50.274Z,187
2018-04-27T01:33:02.686Z,187
2018-04-27T01:33:15.083Z,187
2018-04-27T01:33:27.506Z,187
2018-04-27T01:33:39.914Z,187
2018-04-27T01:33:52.575Z,187
2018-04-27T01:34:04.984Z,187
2018-04-27T01:34:17.391Z,187
2018-04-27T01:34:29.810Z,187
2018-04-27T01:34:42.216Z,187
2018-04-27T01:34:54.642Z,187
2018-04-27T01:35:07.074Z,187
2018-04-27T01:35:19.495Z,187
2018-04-27T01:35:31.897Z,187
2018-04-27T01:35:44.354Z,187
2018-04-27T01:35:56.754Z,187
2018-04-27T01:36:09.143Z,187
2018-04-27T01:36:21.534Z,187
2018-04-27T01:36:33.946Z,187
2018-04-27T01:36:46.359Z,187
2018-04-27T01:36:58.761Z,187
2018-04-27T01:37:11.183Z,187
2018-04-27T01:37:23.589Z,202
2018-04-27T01:37:36.087Z,202
2018-04-27T01:37:48.483Z,202
2018-04-27T01:38:00.869Z,202
2018-04-27T01:38:13.285Z,202
2018-04-27T01:38:25.685Z,202
2018-04-27T01:38:38.096Z,198
2018-04-27T01:38:50.514Z,195
2018-04-27T01:39:02.923Z,195
2018-04-27T01:39:15.335Z,200
2018-04-27T01:39:27.742Z,196
2018-04-27T01:39:40.153Z,196
2018-04-27T01:39:52.552Z,196
2018-04-27T01:40:04.949Z,196
2018-04-27T01:40:17.351Z,196
2018-04-27T01:40:29.753Z,196
2018-04-27T01:40:42.732Z,196
2018-04-27T01:40:55.137Z,177
2018-04-27T01:41:07.553Z,186
2018-04-27T01:41:19.950Z,178
2018-04-27T01:41:32.362Z,178
2018-04-27T01:41:44.771Z,178
2018-04-27T01:41:57.198Z,178
2018-04-27T01:42:09.599Z,178
2018-04-27T01:42:22.016Z,180
2018-04-27T01:42:34.419Z,182
2018-04-27T01:42:46.843Z,192
2018-04-27T01:42:59.248Z,188
2018-04-27T01:43:11.770Z,198
2018-04-27T01:43:24.192Z,207
2018-04-27T01:43:36.597Z,181
2018-04-27T01:43:49.006Z,193
2018-04-27T01:44:01.411Z,205
2018-04-27T01:44:13.826Z,192
2018-04-27T01:44:26.239Z,192
2018-04-27T01:44:38.648Z,181
2018-04-27T01:44:51.050Z,190
2018-04-27T01:45:03.454Z,211
2018-04-27T01:45:15.861Z,219
2018-04-27T01:45:28.342Z,219
2018-04-27T01:45:40.803Z,219
2018-04-27T01:45:53.364Z,186
2018-04-27T01:46:05.774Z,173
2018-04-27T01:46:18.214Z,171
2018-04-27T01:46:30.635Z,171
2018-04-27T01:46:43.108Z,172
2018-04-27T01:46:55.557Z,172
2018-04-27T01:47:07.994Z,178
2018-04-27T01:47:20.398Z,229
2018-04-27T01:47:32.821Z,237
2018-04-27T01:47:45.230Z,237
2018-04-27T01:47:57.710Z,236
2018-04-27T01:48:10.332Z,236
2018-04-27T01:48:22.741Z,236
2018-04-27T01:48:35.166Z,236
2018-04-27T01:48:47.576Z,236
2018-04-27T01:49:00.017Z,236
2018-04-27T01:49:12.438Z,236
2018-04-27T01:49:24.849Z,236
2018-04-27T01:49:37.246Z,236
2018-04-27T01:49:49.661Z,236
2018-04-27T01:50:02.070Z,236
2018-04-27T01:50:14.687Z,233
2018-04-27T01:50:27.137Z,232
2018-04-27T01:50:39.537Z,232
2018-04-27T01:50:52.025Z,234
2018-04-27T01:51:04.445Z,228
2018-04-27T01:51:16.846Z,228
2018-04-27T01:51:29.247Z,228
2018-04-27T01:51:41.697Z,228
2018-04-27T01:51:54.110Z,228
2018-04-27T01:52:06.517Z,228
2018-04-27T01:52:18.927Z,227
2018-04-27T01:52:31.343Z,227
2018-04-27T01:52:44.105Z,227
2018-04-27T01:52:56.516Z,227
2018-04-27T01:53:08.925Z,227
2018-04-27T01:53:21.344Z,227
2018-04-27T01:53:33.747Z,227
2018-04-27T01:53:46.166Z,227
2018-04-27T01:53:58.586Z,227
2018-04-27T01:54:10.998Z,227
2018-04-27T01:54:23.413Z,227
2018-04-27T01:54:35.820Z,227
2018-04-27T01:54:48.237Z,224
2018-04-27T01:55:00.665Z,192
2018-04-27T01:55:13.086Z,165
2018-04-27T01:55:25.499Z,153
2018-04-27T01:55:37.906Z,165
2018-04-27T01:55:50.331Z,161
2018-04-27T01:56:02.736Z,184
2018-04-27T01:56:15.154Z,184
2018-04-27T01:56:27.548Z,184
2018-04-27T01:56:39.958Z,184
2018-04-27T01:56:52.380Z,184
2018-04-27T01:57:04.789Z,184
2018-04-27T01:57:17.187Z,184
2018-04-27T01:57:29.605Z,184
2018-04-27T01:57:42.135Z,184
2018-04-27T01:57:54.540Z,184
2018-04-27T01:58:06.935Z,184
2018-04-27T01:58:19.405Z,184
2018-04-27T01:58:31.804Z,184
2018-04-27T01:58:44.212Z,184
2018-04-27T01:58:56.619Z,184
2018-04-27T01:59:09.028Z,184
2018-04-27T01:59:21.440Z,184
2018-04-27T01:59:33.866Z,184
2018-04-27T01:59:46.285Z,184
2018-04-27T01:59:58.717Z,184
2018-04-27T02:00:11.144Z,184
2018-04-27T02:00:23.590Z,184
2018-04-27T02:00:36.024Z,184
2018-04-27T02:00:48.444Z,184
2018-04-27T02:01:00.883Z,184
2018-04-27T02:01:13.317Z,184
2018-04-27T02:01:25.711Z,184
2018-04-27T02:01:38.125Z,184
2018-04-27T02:01:50.548Z,184
2018-04-27T02:02:03.094Z,184
2018-04-27T02:02:15.515Z,184
2018-04-27T02:02:27.963Z,184
2018-04-27T02:02:40.367Z,184
2018-04-27T02:02:52.763Z,184
2018-04-27T02:03:05.172Z,184
2018-04-27T02:03:17.605Z,184
2018-04-27T02:03:30.008Z,184
2018-04-27T02:03:42.412Z,184
2018-04-27T02:03:54.816Z,184
2018-04-27T02:04:07.224Z,184
2018-04-27T02:04:19.624Z,184
2018-04-27T02:04:32.037Z,184
2018-04-27T02:04:44.451Z,184
2018-04-27T02:04:56.854Z,184
2018-04-27T02:05:09.257Z,184
2018-04-27T02:05:21.686Z,184
2018-04-27T02:05:34.085Z,184
2018-04-27T02:05:46.496Z,184
2018-04-27T02:05:59.043Z,184
2018-04-27T02:06:11.819Z,184
2018-04-27T02:06:24.285Z,184
2018-04-27T02:06:36.990Z,184
2018-04-27T02:06:49.417Z,184
2018-04-27T02:07:01.904Z,184
2018-04-27T02:07:14.314Z,184
2018-04-27T02:07:26.733Z,184
2018-04-27T02:07:39.303Z,184
2018-04-27T02:07:51.726Z,184
2018-04-27T02:08:04.132Z,184
2018-04-27T02:08:16.538Z,184
2018-04-27T02:08:28.952Z,184
2018-04-27T02:08:41.349Z,184
2018-04-27T02:08:53.765Z,184
2018-04-27T02:09:06.163Z,184
2018-04-27T02:09:18.585Z,184
2018-04-27T02:09:31.000Z,184
2018-04-27T02:09:43.433Z,184
2018-04-27T02:09:55.846Z,184
2018-04-27T02:10:08.260Z,184
2018-04-27T02:10:20.678Z,184
2018-04-27T02:10:33.081Z,184
2018-04-27T02:10:45.492Z,184
2018-04-27T02:10:57.904Z,184
2018-04-27T02:11:10.381Z,184
2018-04-27T02:11:22.795Z,184
2018-04-27T02:11:35.204Z,184
2018-04-27T02:11:47.696Z,184
2018-04-27T02:12:00.169Z,184
2018-04-27T02:12:12.556Z,184
2018-04-27T02:12:24.971Z,184
2018-04-27T02:12:37.487Z,182
2018-04-27T02:12:49.900Z,182
2018-04-27T02:13:02.375Z,182
2018-04-27T02:13:14.797Z,182
2018-04-27T02:13:27.264Z,182
2018-04-27T02:13:39.880Z,196
2018-04-27T02:13:52.281Z,194
2018-04-27T02:14:04.763Z,198
2018-04-27T02:14:17.173Z,198
2018-04-27T02:14:29.760Z,198
2018-04-27T02:14:42.167Z,192
2018-04-27T02:14:54.568Z,175
2018-04-27T02:15:06.977Z,175
2018-04-27T02:15:19.403Z,175
2018-04-27T02:15:31.852Z,176
2018-04-27T02:15:44.263Z,178
2018-04-27T02:15:56.691Z,197
2018-04-27T02:16:09.101Z,197
2018-04-27T02:16:21.511Z,197
2018-04-27T02:16:33.917Z,197
2018-04-27T02:16:46.324Z,197
2018-04-27T02:16:58.728Z,197
2018-04-27T02:17:11.148Z,197
2018-04-27T02:17:23.561Z,197
2018-04-27T02:17:35.973Z,197
2018-04-27T02:17:48.454Z,197
2018-04-27T02:18:00.863Z,197
2018-04-27T02:18:13.264Z,197
2018-04-27T02:18:25.816Z,168
2018-04-27T02:18:38.360Z,169
2018-04-27T02:18:50.791Z,169
2018-04-27T02:19:03.207Z,169
2018-04-27T02:19:15.625Z,169
2018-04-27T02:19:28.028Z,169
2018-04-27T02:19:40.458Z,169
2018-04-27T02:19:52.864Z,169
2018-04-27T02:20:05.302Z,169
2018-04-27T02:20:17.715Z,169
2018-04-27T02:20:30.191Z,169
2018-04-27T02:20:42.593Z,169
2018-04-27T02:20:55.009Z,169
2018-04-27T02:21:07.411Z,169
2018-04-27T02:21:19.821Z,190
2018-04-27T02:21:32.222Z,198
2018-04-27T02:21:44.667Z,195
2018-04-27T02:21:57.208Z,174
2018-04-27T02:22:09.639Z,174
2018-04-27T02:22:22.037Z,192
2018-04-27T02:22:34.432Z,193
2018-04-27T02:22:46.909Z,218
2018-04-27T02:22:59.317Z,218
2018-04-27T02:23:11.730Z,202
2018-04-27T02:23:24.127Z,202
2018-04-27T02:23:36.545Z,202
2018-04-27T02:23:48.947Z,202
2018-04-27T02:24:01.367Z,202
2018-04-27T02:24:13.772Z,202
2018-04-27T02:24:26.184Z,202
2018-04-27T02:24:38.581Z,202
2018-04-27T02:24:50.989Z,199
2018-04-27T02:25:03.405Z,188
2018-04-27T02:25:15.927Z,122
2018-04-27T02:25:28.335Z,148
2018-04-27T02:25:40.752Z,187
2018-04-27T02:25:53.237Z,209
2018-04-27T02:26:05.648Z,209
2018-04-27T02:26:18.051Z,230
2018-04-27T02:26:30.473Z,205
2018-04-27T02:26:42.899Z,205
2018-04-27T02:26:55.302Z,205
2018-04-27T02:27:07.782Z,182
2018-04-27T02:27:20.208Z,182
2018-04-27T02:27:32.617Z,182
2018-04-27T02:27:45.024Z,182
2018-04-27T02:27:57.445Z,182
2018-04-27T02:28:09.835Z,182
2018-04-27T02:28:22.269Z,182
2018-04-27T02:28:34.678Z,182
2018-04-27T02:28:47.088Z,183
2018-04-27T02:28:59.496Z,183
2018-04-27T02:29:11.909Z,183
2018-04-27T02:29:24.318Z,183
2018-04-27T02:29:36.743Z,159
2018-04-27T02:29:49.230Z,184
2018-04-27T02:30:01.650Z,180
2018-04-27T02:30:14.217Z,170
2018-04-27T02:30:26.660Z,170
2018-04-27T02:30:39.200Z,170
2018-04-27T02:30:51.608Z,170
2018-04-27T02:31:04.096Z,152
2018-04-27T02:31:16.516Z,167
2018-04-27T02:31:28.939Z,174
2018-04-27T02:31:41.362Z,180
2018-04-27T02:31:53.801Z,173
2018-04-27T02:32:06.255Z,173
2018-04-27T02:32:18.685Z,173
2018-04-27T02:32:31.104Z,152
2018-04-27T02:32:43.541Z,172
2018-04-27T02:32:55.958Z,192
2018-04-27T02:33:08.414Z,194
2018-04-27T02:33:20.891Z,192
2018-04-27T02:33:33.343Z,192
2018-04-27T02:33:45.762Z,186
2018-04-27T02:33:58.789Z,198
2018-04-27T02:34:11.205Z,174
2018-04-27T02:34:23.706Z,173
2018-04-27T02:34:36.136Z,173
2018-04-27T02:34:48.594Z,169
2018-04-27T02:35:01.029Z,169
2018-04-27T02:35:13.488Z,163
2018-04-27T02:35:25.932Z,181
2018-04-27T02:35:38.450Z,163
2018-04-27T02:35:50.888Z,169
2018-04-27T02:36:03.299Z,169
2018-04-27T02:36:15.729Z,169
2018-04-27T02:36:28.151Z,190
2018-04-27T02:36:40.653Z,190
2018-04-27T02:36:53.076Z,190
2018-04-27T02:37:05.608Z,190
2018-04-27T02:37:18.047Z,194
2018-04-27T02:37:30.486Z,205
2018-04-27T02:37:42.919Z,182
2018-04-27T02:37:55.366Z,185
2018-04-27T02:38:07.789Z,184
2018-04-27T02:38:20.221Z,182
2018-04-27T02:38:32.634Z,182
2018-04-27T02:38:45.063Z,182
2018-04-27T02:38:57.517Z,182
2018-04-27T02:39:09.930Z,182
2018-04-27T02:39:22.391Z,192
2018-04-27T02:39:35.076Z,192
2018-04-27T02:39:47.583Z,182
2018-04-27T02:40:00.013Z,196
2018-04-27T02:40:12.460Z,205
2018-04-27T02:40:24.903Z,203
2018-04-27T02:40:37.332Z,203
2018-04-27T02:40:49.887Z,203
2018-04-27T02:41:02.340Z,188
2018-04-27T02:41:14.754Z,188
2018-04-27T02:41:27.171Z,188
2018-04-27T02:41:39.626Z,188
2018-04-27T02:41:52.047Z,188
2018-04-27T02:42:04.519Z,191
2018-04-27T02:42:16.944Z,191
2018-04-27T02:42:29.366Z,191
2018-04-27T02:42:41.798Z,191
2018-04-27T02:42:54.230Z,191
2018-04-27T02:43:06.658Z,191
2018-04-27T02:43:19.092Z,191
2018-04-27T02:43:31.519Z,191
2018-04-27T02:43:44.036Z,191
2018-04-27T02:43:56.455Z,169
2018-04-27T02:44:08.967Z,180
2018-04-27T02:44:21.376Z,190
2018-04-27T02:44:33.829Z,190
2018-04-27T02:44:46.272Z,190
2018-04-27T02:44:58.732Z,190
2018-04-27T02:45:11.158Z,190
2018-04-27T02:45:23.592Z,190
2018-04-27T02:45:36.110Z,180
2018-04-27T02:45:48.677Z,172
2018-04-27T02:46:01.108Z,190
2018-04-27T02:46:13.536Z,190
2018-04-27T02:46:25.982Z,190
2018-04-27T02:46:38.407Z,190
2018-04-27T02:46:50.851Z,190
2018-04-27T02:47:03.298Z,190
2018-04-27T02:47:15.723Z,204
2018-04-27T02:47:28.135Z,180
2018-04-27T02:47:40.655Z,199
2018-04-27T02:47:53.094Z,175
2018-04-27T02:48:05.521Z,169
2018-04-27T02:48:18.226Z,189
2018-04-27T02:48:30.650Z,174
2018-04-27T02:48:43.074Z,194
2018-04-27T02:48:55.500Z,147
2018-04-27T02:49:07.916Z,173
2018-04-27T02:49:20.344Z,187
2018-04-27T02:49:32.753Z,171
2018-04-27T02:49:45.176Z,184
2018-04-27T02:49:57.614Z,190
2018-04-27T02:50:10.179Z,202
2018-04-27T02:50:22.602Z,202
2018-04-27T02:50:35.086Z,193
2018-04-27T02:50:47.602Z,200
2018-04-27T02:51:00.039Z,190
2018-04-27T02:51:12.488Z,191